Time,TemperatureF,DewpointF,PressureIn,WindDirection,WindDirectionDegrees,WindSpeedMPH,WindSpeedGustMPH,Humidity,HourlyPrecipIn,Conditions,Clouds,dailyrainin,SoftwareType,DateUTC
2013-02-18 00:02:00,19.6,8.7,29.42,NNW,337,30.0,30.0,62,0.00,,,0.00,Wunderground v.1.15,2013-02-18 05:02:00,
2013-02-18 00:11:00,19.5,6.7,29.43,NNW,331,28.0,29.0,57,0.00,,,0.00,Wunderground v.1.15,2013-02-18 05:11:00,
2013-02-18 00:16:00,19.4,8.1,29.43,NNW,335,28.0,29.0,61,0.00,,,0.00,Wunderground v.1.15,2013-02-18 05:16:00,
2013-02-18 00:21:00,19.4,7.4,29.43,NNW,334,28.0,29.0,59,0.00,,,0.00,Wunderground v.1.15,2013-02-18 05:21:00,
2013-02-18 00:26:00,19.4,7.4,29.44,NNW,335,30.0,30.0,59,0.00,,,0.00,Wunderground v.1.15,2013-02-18 05:26:00,
2013-02-18 00:36:00,19.3,6.9,29.44,NNW,340,27.0,31.0,58,0.00,,,0.00,Wunderground v.1.15,2013-02-18 05:36:00,
2013-02-18 00:46:00,19.6,8.3,29.45,NNW,341,23.0,25.0,61,0.00,,,0.00,Wunderground v.1.15,2013-02-18 05:46:00,
2013-02-18 00:51:00,19.3,5.7,29.45,NNW,328,23.0,23.0,55,0.00,,,0.00,Wunderground v.1.15,2013-02-18 05:51:00,
2013-02-18 01:01:00,19.3,6.5,29.45,NNW,334,26.0,32.0,57,0.00,,,0.00,Wunderground v.1.15,2013-02-18 06:01:00,
2013-02-18 01:11:00,19.5,7.5,29.45,NNW,336,27.0,27.0,59,0.00,,,0.00,Wunderground v.1.15,2013-02-18 06:11:00,
2013-02-18 01:16:00,19.5,7.9,29.46,NNW,331,28.0,28.0,60,0.00,,,0.00,Wunderground v.1.15,2013-02-18 06:16:00,
2013-02-18 01:26:00,19.8,8.1,29.46,NNW,338,29.0,36.0,60,0.00,,,0.00,Wunderground v.1.15,2013-02-18 06:26:00,
2013-02-18 01:31:00,19.6,8.3,29.46,NNW,334,29.0,29.0,61,0.00,,,0.00,Wunderground v.1.15,2013-02-18 06:31:00,
2013-02-18 01:41:00,19.6,8.0,29.46,NNW,332,27.0,29.0,60,0.00,,,0.00,Wunderground v.1.15,2013-02-18 06:41:00,
2013-02-18 01:46:00,19.6,8.7,29.47,NNW,339,27.0,29.0,62,0.00,,,0.00,Wunderground v.1.15,2013-02-18 06:46:00,
2013-02-18 01:56:00,19.6,7.6,29.47,NNW,331,26.0,27.0,59,0.00,,,0.00,Wunderground v.1.15,2013-02-18 06:56:00,
2013-02-18 02:01:00,19.7,7.3,29.47,NNW,335,27.0,28.0,58,0.00,,,0.00,Wunderground v.1.15,2013-02-18 07:01:00,
2013-02-18 02:06:00,19.8,8.5,29.47,NNW,336,29.0,29.0,61,0.00,,,0.00,Wunderground v.1.15,2013-02-18 07:06:00,
2013-02-18 02:16:00,19.5,8.2,29.48,NW,323,29.0,37.0,61,0.00,,,0.00,Wunderground v.1.15,2013-02-18 07:16:00,
2013-02-18 02:21:00,19.5,9.3,29.48,NNW,335,31.0,34.0,64,0.00,,,0.00,Wunderground v.1.15,2013-02-18 07:21:00,
2013-02-18 02:31:00,19.5,8.6,29.49,NNW,329,32.0,43.0,62,0.00,,,0.00,Wunderground v.1.15,2013-02-18 07:31:00,
2013-02-18 02:41:00,19.2,9.0,29.50,NNW,333,34.0,34.0,64,0.00,,,0.00,Wunderground v.1.15,2013-02-18 07:41:00,
2013-02-18 02:46:00,19.1,8.9,29.49,NNW,337,34.0,34.0,64,0.00,,,0.00,Wunderground v.1.15,2013-02-18 07:46:00,
2013-02-18 02:56:00,19.2,8.7,29.49,NNW,333,34.0,34.0,63,0.00,,,0.00,Wunderground v.1.15,2013-02-18 07:56:00,
2013-02-18 03:01:00,19.0,8.8,29.49,NNW,327,34.0,34.0,64,0.00,,,0.00,Wunderground v.1.15,2013-02-18 08:01:00,
2013-02-18 03:11:00,19.0,9.2,29.50,NNW,335,33.0,34.0,65,0.00,,,0.00,Wunderground v.1.15,2013-02-18 08:11:00,
2013-02-18 03:16:00,19.0,8.5,29.50,NNW,331,31.0,34.0,63,0.00,,,0.00,Wunderground v.1.15,2013-02-18 08:16:00,
2013-02-18 03:21:00,18.9,8.0,29.50,NW,304,30.0,30.0,62,0.00,,,0.00,Wunderground v.1.15,2013-02-18 08:21:00,
2013-02-18 03:31:00,19.2,9.7,29.51,NNW,339,29.0,33.0,66,0.00,,,0.00,Wunderground v.1.15,2013-02-18 08:31:00,
2013-02-18 03:41:00,18.9,7.7,29.52,NNW,341,29.0,35.0,61,0.00,,,0.00,Wunderground v.1.15,2013-02-18 08:41:00,
2013-02-18 03:46:00,18.6,6.3,29.52,NNW,341,30.0,36.0,58,0.00,,,0.00,Wunderground v.1.15,2013-02-18 08:46:00,
2013-02-18 03:56:00,18.8,7.9,29.52,NNW,341,30.0,31.0,62,0.00,,,0.00,Wunderground v.1.15,2013-02-18 08:56:00,
2013-02-18 04:02:00,18.8,8.3,29.52,NW,325,31.0,39.0,63,0.00,,,0.00,Wunderground v.1.15,2013-02-18 09:02:00,
2013-02-18 04:11:00,18.9,8.4,29.53,NNW,330,32.0,32.0,63,0.00,,,0.00,Wunderground v.1.15,2013-02-18 09:11:00,
2013-02-18 04:21:00,18.7,8.5,29.54,NNW,333,30.0,30.0,64,0.00,,,0.00,Wunderground v.1.15,2013-02-18 09:21:00,
2013-02-18 04:26:00,18.5,7.6,29.54,NNW,337,28.0,31.0,62,0.00,,,0.00,Wunderground v.1.15,2013-02-18 09:26:00,
2013-02-18 04:36:00,18.6,9.5,29.55,NNW,336,29.0,29.0,67,0.00,,,0.00,Wunderground v.1.15,2013-02-18 09:36:00,
2013-02-18 04:46:00,18.1,6.9,29.55,NNW,329,25.0,32.0,61,0.00,,,0.00,Wunderground v.1.15,2013-02-18 09:46:00,
2013-02-18 04:51:00,18.0,7.5,29.56,NNW,335,28.0,36.0,63,0.00,,,0.00,Wunderground v.1.15,2013-02-18 09:51:00,
2013-02-18 05:01:00,18.0,8.9,29.56,NNW,341,30.0,30.0,67,0.00,,,0.00,Wunderground v.1.15,2013-02-18 10:01:00,
2013-02-18 05:11:00,17.7,7.6,29.56,NNW,336,27.0,27.0,64,0.00,,,0.00,Wunderground v.1.15,2013-02-18 10:11:00,
2013-02-18 05:16:00,17.9,9.1,29.56,NNW,343,28.0,28.0,68,0.00,,,0.00,Wunderground v.1.15,2013-02-18 10:16:00,
2013-02-18 05:26:00,17.4,6.9,29.57,NNW,339,28.0,32.0,63,0.00,,,0.00,Wunderground v.1.15,2013-02-18 10:26:00,
2013-02-18 05:36:00,17.4,8.3,29.58,NNW,340,31.0,36.0,67,0.00,,,0.00,Wunderground v.1.15,2013-02-18 10:36:00,
2013-02-18 05:41:00,17.4,8.0,29.57,NNW,336,31.0,31.0,66,0.00,,,0.00,Wunderground v.1.15,2013-02-18 10:41:00,
2013-02-18 05:51:00,17.2,7.1,29.58,NNW,333,32.0,38.0,64,0.00,,,0.00,Wunderground v.1.15,2013-02-18 10:51:00,
2013-02-18 05:56:00,17.0,6.9,29.58,NNW,331,32.0,38.0,64,0.00,,,0.00,Wunderground v.1.15,2013-02-18 10:56:00,
2013-02-18 06:01:00,17.0,7.3,29.58,NNW,330,34.0,43.0,65,0.00,,,0.00,Wunderground v.1.15,2013-02-18 11:01:00,
2013-02-18 06:11:00,17.1,8.0,29.59,NNW,330,32.0,33.0,67,0.00,,,0.00,Wunderground v.1.15,2013-02-18 11:11:00,
2013-02-18 06:16:00,16.9,7.2,29.59,NNW,337,32.0,34.0,65,0.00,,,0.00,Wunderground v.1.15,2013-02-18 11:16:00,
2013-02-18 06:26:00,16.8,7.1,29.60,NNW,327,30.0,31.0,65,0.00,,,0.00,Wunderground v.1.15,2013-02-18 11:26:00,
2013-02-18 06:31:00,16.8,6.7,29.60,NNW,337,31.0,32.0,64,0.00,,,0.00,Wunderground v.1.15,2013-02-18 11:31:00,
2013-02-18 06:41:00,16.7,7.0,29.61,NNW,331,34.0,38.0,65,0.00,,,0.00,Wunderground v.1.15,2013-02-18 11:41:00,
2013-02-18 06:51:00,16.5,6.8,29.62,NW,318,34.0,45.0,65,0.00,,,0.00,Wunderground v.1.15,2013-02-18 11:51:00,
2013-02-18 07:01:00,16.8,7.4,29.62,NW,317,36.0,42.0,66,0.00,,,0.00,Wunderground v.1.15,2013-02-18 12:01:00,
2013-02-18 07:11:00,16.7,7.6,29.63,NNW,331,37.0,37.0,67,0.00,,,0.00,Wunderground v.1.15,2013-02-18 12:11:00,
2013-02-18 07:16:00,16.6,7.2,29.63,NNW,348,36.0,37.0,66,0.00,,,0.00,Wunderground v.1.15,2013-02-18 12:16:00,
2013-02-18 07:21:00,16.6,7.2,29.63,NNW,329,35.0,35.0,66,0.00,,,0.00,Wunderground v.1.15,2013-02-18 12:21:00,
2013-02-18 07:31:00,17.0,8.9,29.65,NNW,331,36.0,43.0,70,0.00,,,0.00,Wunderground v.1.15,2013-02-18 12:31:00,
2013-02-18 07:36:00,16.4,6.7,29.65,NNW,344,36.0,43.0,65,0.00,,,0.00,Wunderground v.1.15,2013-02-18 12:36:00,
2013-02-18 07:46:00,16.7,6.3,29.64,NNW,333,34.0,36.0,63,0.00,,,0.00,Wunderground v.1.15,2013-02-18 12:46:00,
2013-02-18 07:51:00,16.9,7.2,29.65,NNW,339,34.0,34.0,65,0.00,,,0.00,Wunderground v.1.15,2013-02-18 12:51:00,
2013-02-18 07:56:00,16.6,6.2,29.65,NNW,335,34.0,34.0,63,0.00,,,0.00,Wunderground v.1.15,2013-02-18 12:56:00,
2013-02-18 08:06:00,16.8,6.7,29.64,NNW,331,30.0,32.0,64,0.00,,,0.00,Wunderground v.1.15,2013-02-18 13:06:00,
2013-02-18 08:11:00,16.9,8.2,29.65,NNW,327,32.0,33.0,68,0.00,,,0.00,Wunderground v.1.15,2013-02-18 13:11:00,
2013-02-18 08:16:00,17.1,7.3,29.65,NNW,330,33.0,33.0,65,0.00,,,0.00,Wunderground v.1.15,2013-02-18 13:16:00,
2013-02-18 08:21:00,17.0,7.6,29.66,NW,326,31.0,32.0,66,0.00,,,0.00,Wunderground v.1.15,2013-02-18 13:21:00,
2013-02-18 08:26:00,17.1,7.0,29.66,NW,310,33.0,38.0,64,0.00,,,0.00,Wunderground v.1.15,2013-02-18 13:26:00,
2013-02-18 08:36:00,17.2,7.8,29.66,NNW,333,36.0,36.0,66,0.00,,,0.00,Wunderground v.1.15,2013-02-18 13:36:00,
2013-02-18 08:41:00,17.3,8.5,29.67,NNW,329,35.0,35.0,68,0.00,,,0.00,Wunderground v.1.15,2013-02-18 13:41:00,
2013-02-18 08:46:00,17.4,8.3,29.67,NNW,341,36.0,36.0,67,0.00,,,0.00,Wunderground v.1.15,2013-02-18 13:46:00,
2013-02-18 08:51:00,17.4,7.6,29.68,NNW,329,36.0,41.0,65,0.00,,,0.00,Wunderground v.1.15,2013-02-18 13:51:00,
2013-02-18 09:01:00,17.5,7.4,29.68,NNW,334,34.0,39.0,64,0.00,,,0.00,Wunderground v.1.15,2013-02-18 14:01:00,
2013-02-18 09:11:00,17.9,8.5,29.69,NW,326,34.0,34.0,66,0.00,,,0.00,Wunderground v.1.15,2013-02-18 14:11:00,
2013-02-18 09:16:00,18.0,8.2,29.70,NNW,334,34.0,34.0,65,0.00,,,0.00,Wunderground v.1.15,2013-02-18 14:16:00,
2013-02-18 09:21:00,18.3,8.5,29.69,NNW,327,32.0,32.0,65,0.00,,,0.00,Wunderground v.1.15,2013-02-18 14:21:00,
2013-02-18 09:31:00,18.6,8.4,29.70,NNW,333,32.0,32.0,64,0.00,,,0.00,Wunderground v.1.15,2013-02-18 14:31:00,
2013-02-18 09:36:00,18.5,7.6,29.71,NNW,339,33.0,33.0,62,0.00,,,0.00,Wunderground v.1.15,2013-02-18 14:36:00,
2013-02-18 09:46:00,18.8,6.8,29.71,NNW,332,31.0,38.0,59,0.00,,,0.00,Wunderground v.1.15,2013-02-18 14:46:00,
2013-02-18 09:51:00,19.1,7.8,29.71,NNW,333,31.0,31.0,61,0.00,,,0.00,Wunderground v.1.15,2013-02-18 14:51:00,
2013-02-18 10:02:00,19.7,8.0,29.71,NW,321,30.0,30.0,60,0.00,,,0.00,Wunderground v.1.15,2013-02-18 15:02:00,
2013-02-18 10:11:00,20.2,9.6,29.72,NNW,331,30.0,33.0,63,0.00,,,0.00,Wunderground v.1.15,2013-02-18 15:11:00,
2013-02-18 10:21:00,20.3,8.6,29.72,NNW,329,32.0,32.0,60,0.00,,,0.00,Wunderground v.1.15,2013-02-18 15:21:00,
2013-02-18 10:26:00,20.7,10.1,29.73,NNW,339,31.0,32.0,63,0.00,,,0.00,Wunderground v.1.15,2013-02-18 15:26:00,
2013-02-18 10:31:00,20.9,8.4,29.73,NNW,330,30.0,30.0,58,0.00,,,0.00,Wunderground v.1.15,2013-02-18 15:31:00,
2013-02-18 10:41:00,21.6,10.9,29.73,NNW,331,26.0,33.0,63,0.00,,,0.00,Wunderground v.1.15,2013-02-18 15:41:00,
2013-02-18 10:51:00,22.1,11.1,29.73,North,350,28.0,28.0,62,0.00,,,0.00,Wunderground v.1.15,2013-02-18 15:51:00,
2013-02-18 10:56:00,22.2,10.4,29.73,NNW,327,26.0,28.0,60,0.00,,,0.00,Wunderground v.1.15,2013-02-18 15:56:00,
2013-02-18 11:01:00,22.3,10.5,29.73,NNW,329,27.0,30.0,60,0.00,,,0.00,Wunderground v.1.15,2013-02-18 16:01:00,
2013-02-18 11:11:00,22.7,10.5,29.73,NNW,333,28.0,33.0,59,0.00,,,0.00,Wunderground v.1.15,2013-02-18 16:11:00,
2013-02-18 11:16:00,22.8,10.2,29.73,NW,321,29.0,35.0,58,0.00,,,0.00,Wunderground v.1.15,2013-02-18 16:16:00,
2013-02-18 11:21:00,23.0,10.8,29.73,NNW,331,29.0,29.0,59,0.00,,,0.00,Wunderground v.1.15,2013-02-18 16:21:00,
2013-02-18 11:27:00,23.0,9.6,29.73,NW,318,29.0,29.0,56,0.00,,,0.00,Wunderground v.1.15,2013-02-18 16:27:00,
2013-02-18 11:32:00,23.3,10.3,29.73,NNW,342,30.0,34.0,57,0.00,,,0.00,Wunderground v.1.15,2013-02-18 16:32:00,
2013-02-18 11:41:00,24.0,12.1,29.73,NNW,335,30.0,30.0,60,0.00,,,0.00,Wunderground v.1.15,2013-02-18 16:41:00,
2013-02-18 11:46:00,24.0,11.7,29.73,NNW,331,28.0,31.0,59,0.00,,,0.00,Wunderground v.1.15,2013-02-18 16:46:00,
2013-02-18 11:56:00,24.2,11.5,29.73,NNW,331,26.0,28.0,58,0.00,,,0.00,Wunderground v.1.15,2013-02-18 16:56:00,
2013-02-18 12:02:00,24.4,11.3,29.73,NNW,330,27.0,30.0,57,0.00,,,0.00,Wunderground v.1.15,2013-02-18 17:02:00,
2013-02-18 12:11:00,25.0,11.9,29.73,NNW,346,25.0,25.0,57,0.00,,,0.00,Wunderground v.1.15,2013-02-18 17:11:00,
2013-02-18 12:16:00,25.2,11.7,29.74,NNW,333,25.0,26.0,56,0.00,,,0.00,Wunderground v.1.15,2013-02-18 17:16:00,
2013-02-18 12:21:00,25.4,11.9,29.73,NNW,335,26.0,26.0,56,0.00,,,0.00,Wunderground v.1.15,2013-02-18 17:21:00,
2013-02-18 12:31:00,25.8,12.2,29.73,NNW,345,25.0,27.0,56,0.00,,,0.00,Wunderground v.1.15,2013-02-18 17:31:00,
2013-02-18 12:36:00,26.3,12.7,29.74,NNW,339,24.0,27.0,56,0.00,,,0.00,Wunderground v.1.15,2013-02-18 17:36:00,
2013-02-18 12:46:00,26.8,11.9,29.73,NNW,334,23.0,24.0,53,0.00,,,0.00,Wunderground v.1.15,2013-02-18 17:46:00,
2013-02-18 12:52:00,27.1,12.6,29.73,NNW,328,23.0,23.0,54,0.00,,,0.00,Wunderground v.1.15,2013-02-18 17:52:00,
2013-02-18 13:02:00,27.5,13.4,29.74,NNW,329,32.0,35.0,55,0.00,,,0.00,Wunderground v.1.15,2013-02-18 18:02:00,
2013-02-18 13:11:00,27.6,12.7,29.74,NW,316,32.0,33.0,53,0.00,,,0.00,Wunderground v.1.15,2013-02-18 18:11:00,
2013-02-18 13:17:00,27.8,13.3,29.74,NNW,339,32.0,33.0,54,0.00,,,0.00,Wunderground v.1.15,2013-02-18 18:17:00,
2013-02-18 13:22:00,27.7,11.5,29.74,NNW,335,31.0,31.0,50,0.00,,,0.00,Wunderground v.1.15,2013-02-18 18:22:00,
2013-02-18 13:31:00,28.1,13.6,29.74,NW,321,26.0,28.0,54,0.00,,,0.00,Wunderground v.1.15,2013-02-18 18:31:00,
2013-02-18 13:36:00,28.3,13.3,29.74,NNW,332,28.0,28.0,53,0.00,,,0.00,Wunderground v.1.15,2013-02-18 18:36:00,
2013-02-18 13:46:00,28.5,12.6,29.74,NNW,333,29.0,33.0,51,0.00,,,0.00,Wunderground v.1.15,2013-02-18 18:46:00,
2013-02-18 13:51:00,28.8,12.9,29.74,NNW,332,30.0,37.0,51,0.00,,,0.00,Wunderground v.1.15,2013-02-18 18:51:00,
2013-02-18 13:56:00,28.9,10.7,29.74,NNW,337,31.0,37.0,46,0.00,,,0.00,Wunderground v.1.15,2013-02-18 18:56:00,
2013-02-18 14:02:00,28.9,10.2,29.75,NNW,341,34.0,37.0,45,0.00,,,0.00,Wunderground v.1.15,2013-02-18 19:02:00,
2013-02-18 14:11:00,29.0,9.8,29.75,NNW,336,32.0,32.0,44,0.00,,,0.00,Wunderground v.1.15,2013-02-18 19:11:00,
2013-02-18 14:22:00,29.2,10.5,29.75,NNW,338,31.0,31.0,45,0.00,,,0.00,Wunderground v.1.15,2013-02-18 19:22:00,
2013-02-18 14:31:00,29.3,9.5,29.75,NNW,337,33.0,34.0,43,0.00,,,0.00,Wunderground v.1.15,2013-02-18 19:31:00,
2013-02-18 14:36:00,29.5,10.2,29.76,NNW,329,33.0,37.0,44,0.00,,,0.00,Wunderground v.1.15,2013-02-18 19:36:00,
2013-02-18 14:41:00,29.6,10.8,29.76,NNW,347,32.0,32.0,45,0.00,,,0.00,Wunderground v.1.15,2013-02-18 19:41:00,
2013-02-18 14:47:00,29.7,9.9,29.76,NNW,340,30.0,36.0,43,0.00,,,0.00,Wunderground v.1.15,2013-02-18 19:47:00,
2013-02-18 14:56:00,29.9,10.1,29.76,NNW,335,32.0,34.0,43,0.00,,,0.00,Wunderground v.1.15,2013-02-18 19:56:00,
2013-02-18 15:02:00,30.1,10.8,29.76,NNW,331,32.0,43.0,44,0.00,,,0.00,Wunderground v.1.15,2013-02-18 20:02:00,
2013-02-18 15:11:00,30.3,10.4,29.76,NNW,334,33.0,33.0,43,0.00,,,0.00,Wunderground v.1.15,2013-02-18 20:11:00,
2013-02-18 15:16:00,30.4,10.0,29.77,NNW,331,33.0,36.0,42,0.00,,,0.00,Wunderground v.1.15,2013-02-18 20:16:00,
2013-02-18 15:21:00,30.5,10.6,29.77,NNW,338,31.0,31.0,43,0.00,,,0.00,Wunderground v.1.15,2013-02-18 20:21:00,
2013-02-18 15:26:00,30.8,11.4,29.78,NNW,327,30.0,33.0,44,0.00,,,0.00,Wunderground v.1.15,2013-02-18 20:26:00,
2013-02-18 15:36:00,30.9,11.5,29.78,NNW,334,29.0,31.0,44,0.00,,,0.00,Wunderground v.1.15,2013-02-18 20:36:00,
2013-02-18 15:42:00,31.0,10.6,29.79,NW,325,27.0,27.0,42,0.00,,,0.00,Wunderground v.1.15,2013-02-18 20:42:00,
2013-02-18 15:51:00,31.1,11.2,29.79,NNW,332,23.0,29.0,43,0.00,,,0.00,Wunderground v.1.15,2013-02-18 20:51:00,
2013-02-18 15:56:00,31.1,11.2,29.79,NNW,332,24.0,29.0,43,0.00,,,0.00,Wunderground v.1.15,2013-02-18 20:56:00,
2013-02-18 16:02:00,30.9,10.5,29.80,NNW,335,25.0,25.0,42,0.00,,,0.00,Wunderground v.1.15,2013-02-18 21:02:00,
2013-02-18 16:12:00,30.8,10.4,29.81,NNW,334,28.0,28.0,42,0.00,,,0.00,Wunderground v.1.15,2013-02-18 21:12:00,
2013-02-18 16:21:00,30.6,10.2,29.82,NNW,333,27.0,27.0,42,0.00,,,0.00,Wunderground v.1.15,2013-02-18 21:21:00,
2013-02-18 16:26:00,30.6,10.2,29.82,NW,323,26.0,28.0,42,0.00,,,0.00,Wunderground v.1.15,2013-02-18 21:26:00,
2013-02-18 16:31:00,30.6,9.1,29.82,NNW,330,28.0,28.0,40,0.00,,,0.00,Wunderground v.1.15,2013-02-18 21:31:00,
2013-02-18 16:36:00,30.6,10.2,29.83,NW,318,27.0,28.0,42,0.00,,,0.00,Wunderground v.1.15,2013-02-18 21:36:00,
2013-02-18 16:46:00,30.5,9.6,29.84,NW,318,24.0,24.0,41,0.00,,,0.00,Wunderground v.1.15,2013-02-18 21:46:00,
2013-02-18 16:51:00,30.5,10.6,29.84,NW,315,23.0,23.0,43,0.00,,,0.00,Wunderground v.1.15,2013-02-18 21:51:00,
2013-02-18 16:56:00,30.3,8.3,29.84,NW,318,24.0,29.0,39,0.00,,,0.00,Wunderground v.1.15,2013-02-18 21:56:00,
2013-02-18 17:02:00,30.2,8.7,29.85,NNW,335,27.0,31.0,40,0.00,,,0.00,Wunderground v.1.15,2013-02-18 22:02:00,
2013-02-18 17:11:00,30.2,11.9,29.85,NNW,333,26.0,26.0,46,0.00,,,0.00,Wunderground v.1.15,2013-02-18 22:11:00,
2013-02-18 17:16:00,30.0,10.2,29.85,NNW,332,25.0,26.0,43,0.00,,,0.00,Wunderground v.1.15,2013-02-18 22:16:00,
2013-02-18 17:21:00,29.9,9.0,29.86,NNW,338,23.0,24.0,41,0.00,,,0.00,Wunderground v.1.15,2013-02-18 22:21:00,
2013-02-18 17:26:00,29.9,10.1,29.86,NW,325,22.0,24.0,43,0.00,,,0.00,Wunderground v.1.15,2013-02-18 22:26:00,
2013-02-18 17:31:00,29.8,8.4,29.86,NW,318,23.0,23.0,40,0.00,,,0.00,Wunderground v.1.15,2013-02-18 22:31:00,
2013-02-18 17:36:00,29.8,10.0,29.87,NW,325,22.0,23.0,43,0.00,,,0.00,Wunderground v.1.15,2013-02-18 22:36:00,
2013-02-18 17:41:00,29.7,9.4,29.87,NNW,331,22.0,22.0,42,0.00,,,0.00,Wunderground v.1.15,2013-02-18 22:41:00,
2013-02-18 17:52:00,29.6,10.3,29.87,NNW,327,21.0,25.0,44,0.00,,,0.00,Wunderground v.1.15,2013-02-18 22:52:00,
2013-02-18 18:02:00,29.4,9.1,29.88,NNW,328,22.0,25.0,42,0.00,,,0.00,Wunderground v.1.15,2013-02-18 23:02:00,
2013-02-18 18:11:00,29.4,10.1,29.88,NW,321,27.0,27.0,44,0.00,,,0.00,Wunderground v.1.15,2013-02-18 23:11:00,
2013-02-18 18:16:00,29.2,8.9,29.88,NNW,327,27.0,31.0,42,0.00,,,0.00,Wunderground v.1.15,2013-02-18 23:16:00,
2013-02-18 18:21:00,29.1,8.8,29.89,NW,320,27.0,27.0,42,0.00,,,0.00,Wunderground v.1.15,2013-02-18 23:21:00,
2013-02-18 18:26:00,28.9,7.6,29.89,NNW,330,25.0,27.0,40,0.00,,,0.00,Wunderground v.1.15,2013-02-18 23:26:00,
2013-02-18 18:32:00,28.8,9.6,29.89,NNW,337,24.0,24.0,44,0.00,,,0.00,Wunderground v.1.15,2013-02-18 23:32:00,
2013-02-18 18:41:00,28.5,8.3,29.89,NNW,338,23.0,23.0,42,0.00,,,0.00,Wunderground v.1.15,2013-02-18 23:41:00,
2013-02-18 18:46:00,28.4,9.7,29.89,NNW,330,23.0,24.0,45,0.00,,,0.00,Wunderground v.1.15,2013-02-18 23:46:00,
2013-02-18 18:51:00,28.3,7.6,29.89,NNW,330,22.0,22.0,41,0.00,,,0.00,Wunderground v.1.15,2013-02-18 23:51:00,
2013-02-18 18:56:00,28.3,10.1,29.90,NNW,332,22.0,22.0,46,0.00,,,0.00,Wunderground v.1.15,2013-02-18 23:56:00,
2013-02-18 19:02:00,28.2,9.5,29.90,NNW,334,20.0,20.0,45,0.00,,,0.00,Wunderground v.1.15,2013-02-19 00:02:00,
2013-02-18 19:11:00,28.0,8.9,29.91,NNW,331,20.0,22.0,44,0.00,,,0.00,Wunderground v.1.15,2013-02-19 00:11:00,
2013-02-18 19:16:00,27.8,7.6,29.91,NNW,331,20.0,22.0,42,0.00,,,0.00,Wunderground v.1.15,2013-02-19 00:16:00,
2013-02-18 19:21:00,27.8,9.7,29.92,NNW,329,20.0,22.0,46,0.00,,,0.00,Wunderground v.1.15,2013-02-19 00:21:00,
2013-02-18 19:26:00,27.7,8.1,29.92,NNW,327,19.0,22.0,43,0.00,,,0.00,Wunderground v.1.15,2013-02-19 00:26:00,
2013-02-18 19:31:00,27.7,7.6,29.92,NNW,331,19.0,19.0,42,0.00,,,0.00,Wunderground v.1.15,2013-02-19 00:31:00,
2013-02-18 19:36:00,27.6,7.5,29.92,NNW,333,19.0,19.0,42,0.00,,,0.00,Wunderground v.1.15,2013-02-19 00:36:00,
2013-02-18 19:41:00,27.5,7.4,29.92,NNW,330,18.0,18.0,42,0.00,,,0.00,Wunderground v.1.15,2013-02-19 00:41:00,
2013-02-18 19:47:00,27.4,8.3,29.92,NNW,329,18.0,19.0,44,0.00,,,0.00,Wunderground v.1.15,2013-02-19 00:47:00,
2013-02-18 19:56:00,27.4,7.3,29.92,NNW,333,21.0,24.0,42,0.00,,,0.00,Wunderground v.1.15,2013-02-19 00:56:00,
2013-02-18 20:02:00,27.3,8.2,29.93,NNW,327,22.0,22.0,44,0.00,,,0.00,Wunderground v.1.15,2013-02-19 01:02:00,
2013-02-18 20:12:00,27.3,11.5,29.93,NNW,329,20.0,25.0,51,0.00,,,0.00,Wunderground v.1.15,2013-02-19 01:12:00,
2013-02-18 20:21:00,27.0,8.5,29.93,NW,320,21.0,23.0,45,0.00,,,0.00,Wunderground v.1.15,2013-02-19 01:21:00,
2013-02-18 20:26:00,27.0,9.9,29.94,NW,326,20.0,23.0,48,0.00,,,0.00,Wunderground v.1.15,2013-02-19 01:26:00,
2013-02-18 20:31:00,26.8,6.7,29.94,NW,317,18.0,18.0,42,0.00,,,0.00,Wunderground v.1.15,2013-02-19 01:31:00,
2013-02-18 20:36:00,26.6,6.0,29.94,NW,324,17.0,18.0,41,0.00,,,0.00,Wunderground v.1.15,2013-02-19 01:36:00,
2013-02-18 20:42:00,26.6,7.6,29.94,NNW,333,16.0,19.0,44,0.00,,,0.00,Wunderground v.1.15,2013-02-19 01:42:00,
2013-02-18 20:47:00,26.3,4.1,29.94,NW,316,16.0,19.0,38,0.00,,,0.00,Wunderground v.1.15,2013-02-19 01:47:00,
2013-02-18 20:56:00,26.3,7.3,29.95,NW,317,14.0,16.0,44,0.00,,,0.00,Wunderground v.1.15,2013-02-19 01:56:00,
2013-02-18 21:02:00,26.2,7.2,29.94,NNW,332,15.0,22.0,44,0.00,,,0.00,Wunderground v.1.15,2013-02-19 02:02:00,
2013-02-18 21:12:00,25.9,7.4,29.95,NNW,331,19.0,19.0,45,0.00,,,0.00,Wunderground v.1.15,2013-02-19 02:12:00,
2013-02-18 21:21:00,25.6,6.7,29.95,NNW,329,18.0,19.0,44,0.00,,,0.00,Wunderground v.1.15,2013-02-19 02:21:00,
2013-02-18 21:26:00,25.6,7.7,29.95,NW,316,17.0,19.0,46,0.00,,,0.00,Wunderground v.1.15,2013-02-19 02:26:00,
2013-02-18 21:31:00,25.5,7.1,29.95,NNW,329,17.0,19.0,45,0.00,,,0.00,Wunderground v.1.15,2013-02-19 02:31:00,
2013-02-18 21:36:00,25.3,5.9,29.96,NNW,327,17.0,19.0,43,0.00,,,0.00,Wunderground v.1.15,2013-02-19 02:36:00,
2013-02-18 21:42:00,25.4,6.0,29.96,NW,325,18.0,18.0,43,0.00,,,0.00,Wunderground v.1.15,2013-02-19 02:42:00,
2013-02-18 21:51:00,25.6,6.7,29.96,NNW,338,17.0,17.0,44,0.00,,,0.00,Wunderground v.1.15,2013-02-19 02:51:00,
2013-02-18 21:56:00,25.7,7.3,29.96,NW,324,17.0,17.0,45,0.00,,,0.00,Wunderground v.1.15,2013-02-19 02:56:00,
2013-02-18 22:02:00,25.6,5.6,29.96,NNW,332,18.0,20.0,42,0.00,,,0.00,Wunderground v.1.15,2013-02-19 03:02:00,
2013-02-18 22:11:00,25.4,6.5,29.96,NW,310,15.0,15.0,44,0.00,,,0.00,Wunderground v.1.15,2013-02-19 03:11:00,
2013-02-18 22:16:00,25.4,7.0,29.96,NW,323,14.0,15.0,45,0.00,,,0.00,Wunderground v.1.15,2013-02-19 03:16:00,
2013-02-18 22:21:00,25.5,6.1,29.96,NW,316,15.0,16.0,43,0.00,,,0.00,Wunderground v.1.15,2013-02-19 03:21:00,
2013-02-18 22:26:00,25.4,6.5,29.96,NNW,331,16.0,20.0,44,0.00,,,0.00,Wunderground v.1.15,2013-02-19 03:26:00,
2013-02-18 22:37:00,25.1,6.7,29.97,NW,325,15.0,18.0,45,0.00,,,0.00,Wunderground v.1.15,2013-02-19 03:37:00,
2013-02-18 22:42:00,25.0,5.6,29.97,NW,319,13.0,13.0,43,0.00,,,0.00,Wunderground v.1.15,2013-02-19 03:42:00,
2013-02-18 22:51:00,24.9,5.0,29.98,NW,311,12.0,12.0,42,0.00,,,0.00,Wunderground v.1.15,2013-02-19 03:51:00,
2013-02-18 22:57:00,24.9,6.5,29.98,NW,309,9.0,12.0,45,0.00,,,0.00,Wunderground v.1.15,2013-02-19 03:57:00,
2013-02-18 23:07:00,25.2,7.8,29.98,NW,309,8.0,8.0,47,0.00,,,0.00,Wunderground v.1.15,2013-02-19 04:07:00,
2013-02-18 23:17:00,25.0,8.5,29.99,West,278,5.0,7.0,49,0.00,,,0.00,Wunderground v.1.15,2013-02-19 04:17:00,
2013-02-18 23:26:00,25.1,7.2,29.98,NW,311,9.0,12.0,46,0.00,,,0.00,Wunderground v.1.15,2013-02-19 04:26:00,
2013-02-18 23:31:00,25.1,6.2,29.99,NW,308,9.0,11.0,44,0.00,,,0.00,Wunderground v.1.15,2013-02-19 04:31:00,
2013-02-18 23:37:00,25.1,8.6,30.00,West,278,9.0,11.0,49,0.00,,,0.00,Wunderground v.1.15,2013-02-19 04:37:00,
2013-02-18 23:47:00,24.7,8.2,30.00,WNW,295,9.0,13.0,49,0.00,,,0.00,Wunderground v.1.15,2013-02-19 04:47:00,
2013-02-18 23:52:00,24.5,7.6,30.00,West,278,11.0,15.0,48,0.00,,,0.00,Wunderground v.1.15,2013-02-19 04:52:00,